EGHE/ISC METAR and TAF weather

Enter ICAO airport designator
Station Type Date Time Source
EGHE METAR 2018/12/12 16:50 UTC NOAA

EGHE 121650Z 15024KT 9999 FEW020 11/08 Q1010


Station Type Date Time Source
EGHE Decoded METAR 2018/12/12 16:50 UTC NOAA

Scilly, Saint Mary'S, United Kingdom (EGHE) 49-55N 006-18W 0M
Dec 12, 2018 - 11:50 AM EST / 2018.12.12 1650 UTC
Wind: from the SSE (150 degrees) at 28 MPH (24 KT):0
Visibility: greater than 7 mile(s):0
Sky conditions: mostly clear
Temperature: 51 F (11 C)
Dew Point: 46 F (8 C)
Relative Humidity: 81%
Pressure (altimeter): 29.83 in. Hg (1010 hPa)
ob: EGHE 121650Z 15024KT 9999 FEW020 11/08 Q1010
cycle: 17

Station Type Date Time Source
EGHE TAF UTC NOAA

Error!


Example: see airport list